sensor_id;sensor_type;location;lat;lon;timestamp;temperature;humidity
21772;DHT22;11047;47.904;8.110;2024-01-25T00:02:21;7.30;99.90
21772;DHT22;11047;47.904;8.110;2024-01-25T00:04:49;6.70;99.90
21772;DHT22;11047;47.904;8.110;2024-01-25T00:07:16;6.80;99.90
21772;DHT22;11047;47.904;8.110;2024-01-25T00:09:42;6.80;99.90
21772;DHT22;11047;47.904;8.110;2024-01-25T00:12:09;7.00;99.90
21772;DHT22;11047;47.904;8.110;2024-01-25T00:14:36;6.70;99.90
21772;DHT22;11047;47.904;8.110;2024-01-25T00:17:03;7.20;99.90
21772;DHT22;11047;47.904;8.110;2024-01-25T00:19:30;7.30;99.90
21772;DHT22;11047;47.904;8.110;2024-01-25T00:21:58;6.80;99.90
21772;DHT22;11047;47.904;8.110;2024-01-25T00:24:25;6.80;99.90
21772;DHT22;11047;47.904;8.110;2024-01-25T00:26:52;7.40;99.90
21772;DHT22;11047;47.904;8.110;2024-01-25T00:29:19;7.10;99.90
21772;DHT22;11047;47.904;8.110;2024-01-25T00:31:46;7.00;99.90
21772;DHT22;11047;47.904;8.110;2024-01-25T00:34:12;7.10;99.90
21772;DHT22;11047;47.904;8.110;2024-01-25T00:36:39;6.80;99.90
21772;DHT22;11047;47.904;8.110;2024-01-25T00:39:08;6.70;99.90
21772;DHT22;11047;47.904;8.110;2024-01-25T00:41:35;6.70;99.90
21772;DHT22;11047;47.904;8.110;2024-01-25T00:44:02;6.70;99.90
21772;DHT22;11047;47.904;8.110;2024-01-25T00:46:29;6.70;99.90
21772;DHT22;11047;47.904;8.110;2024-01-25T00:48:56;6.70;99.90
21772;DHT22;11047;47.904;8.110;2024-01-25T00:51:23;6.60;99.90
21772;DHT22;11047;47.904;8.110;2024-01-25T00:53:50;6.60;99.90
21772;DHT22;11047;47.904;8.110;2024-01-25T00:56:18;6.60;99.90
21772;DHT22;11047;47.904;8.110;2024-01-25T00:58:45;6.60;99.90
21772;DHT22;11047;47.904;8.110;2024-01-25T01:01:12;6.60;99.90
21772;DHT22;11047;47.904;8.110;2024-01-25T01:03:39;6.50;99.90
21772;DHT22;11047;47.904;8.110;2024-01-25T01:06:06;6.60;99.90
21772;DHT22;11047;47.904;8.110;2024-01-25T01:08:34;6.70;99.90
21772;DHT22;11047;47.904;8.110;2024-01-25T01:11:00;6.50;99.90
21772;DHT22;11047;47.904;8.110;2024-01-25T01:13:29;6.90;99.90
21772;DHT22;11047;47.904;8.110;2024-01-25T01:15:55;6.50;99.90
21772;DHT22;11047;47.904;8.110;2024-01-25T01:18:22;7.10;99.90
21772;DHT22;11047;47.904;8.110;2024-01-25T01:20:49;7.20;99.90
21772;DHT22;11047;47.904;8.110;2024-01-25T01:23:15;6.50;99.90
21772;DHT22;11047;47.904;8.110;2024-01-25T01:25:42;6.40;99.90
21772;DHT22;11047;47.904;8.110;2024-01-25T01:28:09;6.50;99.90
21772;DHT22;11047;47.904;8.110;2024-01-25T01:30:37;6.50;99.90
21772;DHT22;11047;47.904;8.110;2024-01-25T01:33:06;6.00;99.90
21772;DHT22;11047;47.904;8.110;2024-01-25T01:35:33;6.50;99.90
21772;DHT22;11047;47.904;8.110;2024-01-25T01:38:00;6.40;99.90
21772;DHT22;11047;47.904;8.110;2024-01-25T01:40:27;6.90;99.90
21772;DHT22;11047;47.904;8.110;2024-01-25T01:42:58;6.40;99.90
21772;DHT22;11047;47.904;8.110;2024-01-25T01:45:25;6.40;99.90
21772;DHT22;11047;47.904;8.110;2024-01-25T01:47:53;6.40;99.90
21772;DHT22;11047;47.904;8.110;2024-01-25T01:50:19;6.80;99.90
21772;DHT22;11047;47.904;8.110;2024-01-25T01:52:46;6.30;99.90
21772;DHT22;11047;47.904;8.110;2024-01-25T01:55:14;6.70;99.90
21772;DHT22;11047;47.904;8.110;2024-01-25T01:57:41;6.40;99.90
21772;DHT22;11047;47.904;8.110;2024-01-25T02:00:08;6.30;99.90
21772;DHT22;11047;47.904;8.110;2024-01-25T02:02:35;6.30;99.90
21772;DHT22;11047;47.904;8.110;2024-01-25T02:05:03;6.40;99.90
21772;DHT22;11047;47.904;8.110;2024-01-25T02:07:30;6.30;99.90
21772;DHT22;11047;47.904;8.110;2024-01-25T02:09:57;6.30;99.90
21772;DHT22;11047;47.904;8.110;2024-01-25T02:12:23;6.60;99.90
21772;DHT22;11047;47.904;8.110;2024-01-25T02:14:50;6.20;99.90
21772;DHT22;11047;47.904;8.110;2024-01-25T02:17:17;6.20;99.90
21772;DHT22;11047;47.904;8.110;2024-01-25T02:19:44;6.30;99.90
21772;DHT22;11047;47.904;8.110;2024-01-25T02:24:45;6.30;99.90
21772;DHT22;11047;47.904;8.110;2024-01-25T02:27:11;6.40;99.90
21772;DHT22;11047;47.904;8.110;2024-01-25T02:29:38;6.40;99.90
21772;DHT22;11047;47.904;8.110;2024-01-25T02:32:05;6.40;99.90
21772;DHT22;11047;47.904;8.110;2024-01-25T02:34:32;6.30;99.90
21772;DHT22;11047;47.904;8.110;2024-01-25T02:36:59;7.00;99.90
21772;DHT22;11047;47.904;8.110;2024-01-25T02:39:25;6.40;99.90
21772;DHT22;11047;47.904;8.110;2024-01-25T02:41:53;6.30;99.90
21772;DHT22;11047;47.904;8.110;2024-01-25T02:44:20;6.30;99.90
21772;DHT22;11047;47.904;8.110;2024-01-25T02:46:47;6.30;99.90
21772;DHT22;11047;47.904;8.110;2024-01-25T02:49:14;6.40;99.90
21772;DHT22;11047;47.904;8.110;2024-01-25T02:51:41;6.30;99.90
21772;DHT22;11047;47.904;8.110;2024-01-25T02:54:08;6.80;99.90
21772;DHT22;11047;47.904;8.110;2024-01-25T02:56:34;6.40;99.90
21772;DHT22;11047;47.904;8.110;2024-01-25T02:59:02;6.30;99.90
21772;DHT22;11047;47.904;8.110;2024-01-25T03:01:37;6.30;99.90
21772;DHT22;11047;47.904;8.110;2024-01-25T03:04:04;6.30;99.90
21772;DHT22;11047;47.904;8.110;2024-01-25T03:06:30;6.10;99.90
21772;DHT22;11047;47.904;8.110;2024-01-25T03:08:57;7.00;99.90
21772;DHT22;11047;47.904;8.110;2024-01-25T03:11:24;6.60;99.90
21772;DHT22;11047;47.904;8.110;2024-01-25T03:13:51;6.60;99.90
21772;DHT22;11047;47.904;8.110;2024-01-25T03:16:18;6.20;99.90
21772;DHT22;11047;47.904;8.110;2024-01-25T03:18:44;5.70;99.90
21772;DHT22;11047;47.904;8.110;2024-01-25T03:21:14;6.20;99.90
21772;DHT22;11047;47.904;8.110;2024-01-25T03:23:41;6.50;99.90
21772;DHT22;11047;47.904;8.110;2024-01-25T03:26:08;6.20;99.90
21772;DHT22;11047;47.904;8.110;2024-01-25T03:28:37;6.80;99.90
21772;DHT22;11047;47.904;8.110;2024-01-25T03:31:05;7.00;99.90
21772;DHT22;11047;47.904;8.110;2024-01-25T03:33:33;6.20;99.90
21772;DHT22;11047;47.904;8.110;2024-01-25T03:36:01;6.00;99.90
21772;DHT22;11047;47.904;8.110;2024-01-25T03:38:28;6.20;99.90
21772;DHT22;11047;47.904;8.110;2024-01-25T03:40:55;6.20;99.90
21772;DHT22;11047;47.904;8.110;2024-01-25T03:43:23;6.30;99.90
21772;DHT22;11047;47.904;8.110;2024-01-25T03:45:50;6.20;99.90
21772;DHT22;11047;47.904;8.110;2024-01-25T03:48:17;6.20;99.90
21772;DHT22;11047;47.904;8.110;2024-01-25T03:50:45;6.20;99.90
21772;DHT22;11047;47.904;8.110;2024-01-25T03:53:12;6.20;99.90
21772;DHT22;11047;47.904;8.110;2024-01-25T03:55:38;6.20;99.90
21772;DHT22;11047;47.904;8.110;2024-01-25T03:58:05;6.90;99.90
21772;DHT22;11047;47.904;8.110;2024-01-25T04:00:32;6.10;99.90
21772;DHT22;11047;47.904;8.110;2024-01-25T04:02:59;6.70;99.90
21772;DHT22;11047;47.904;8.110;2024-01-25T04:05:25;6.20;99.90
21772;DHT22;11047;47.904;8.110;2024-01-25T04:07:54;6.20;99.90
21772;DHT22;11047;47.904;8.110;2024-01-25T04:10:20;6.30;99.90
21772;DHT22;11047;47.904;8.110;2024-01-25T04:12:47;6.30;99.90
21772;DHT22;11047;47.904;8.110;2024-01-25T04:15:14;6.20;99.90
21772;DHT22;11047;47.904;8.110;2024-01-25T04:17:41;5.80;99.90
21772;DHT22;11047;47.904;8.110;2024-01-25T04:20:08;6.50;99.90
21772;DHT22;11047;47.904;8.110;2024-01-25T04:22:35;6.30;99.90
21772;DHT22;11047;47.904;8.110;2024-01-25T04:25:03;6.30;99.90
21772;DHT22;11047;47.904;8.110;2024-01-25T04:27:30;6.30;99.90
21772;DHT22;11047;47.904;8.110;2024-01-25T04:29:57;6.40;99.90
21772;DHT22;11047;47.904;8.110;2024-01-25T04:32:24;6.30;99.90
21772;DHT22;11047;47.904;8.110;2024-01-25T04:34:51;6.60;99.90
21772;DHT22;11047;47.904;8.110;2024-01-25T04:37:17;6.60;99.90
21772;DHT22;11047;47.904;8.110;2024-01-25T04:39:44;6.70;99.90
21772;DHT22;11047;47.904;8.110;2024-01-25T04:42:12;6.30;99.90
21772;DHT22;11047;47.904;8.110;2024-01-25T04:44:39;6.30;99.90
21772;DHT22;11047;47.904;8.110;2024-01-25T04:47:06;6.40;99.90
21772;DHT22;11047;47.904;8.110;2024-01-25T04:49:33;6.40;99.90
21772;DHT22;11047;47.904;8.110;2024-01-25T04:51:59;6.60;99.90
21772;DHT22;11047;47.904;8.110;2024-01-25T04:54:28;6.30;99.90
21772;DHT22;11047;47.904;8.110;2024-01-25T04:56:55;6.30;99.90
21772;DHT22;11047;47.904;8.110;2024-01-25T04:59:23;6.50;99.90
21772;DHT22;11047;47.904;8.110;2024-01-25T05:01:59;6.30;99.90
21772;DHT22;11047;47.904;8.110;2024-01-25T05:04:25;6.20;99.90
21772;DHT22;11047;47.904;8.110;2024-01-25T05:06:53;6.20;99.90
21772;DHT22;11047;47.904;8.110;2024-01-25T05:09:20;6.00;99.90
21772;DHT22;11047;47.904;8.110;2024-01-25T05:11:46;6.20;99.90
21772;DHT22;11047;47.904;8.110;2024-01-25T05:14:13;6.20;99.90
21772;DHT22;11047;47.904;8.110;2024-01-25T05:16:41;6.10;99.90
21772;DHT22;11047;47.904;8.110;2024-01-25T05:19:08;6.80;99.90
21772;DHT22;11047;47.904;8.110;2024-01-25T05:21:35;6.20;99.90
21772;DHT22;11047;47.904;8.110;2024-01-25T05:24:02;6.10;99.90
21772;DHT22;11047;47.904;8.110;2024-01-25T05:26:28;6.10;99.90
21772;DHT22;11047;47.904;8.110;2024-01-25T05:28:57;5.40;99.90
21772;DHT22;11047;47.904;8.110;2024-01-25T05:31:24;6.20;99.90
21772;DHT22;11047;47.904;8.110;2024-01-25T05:33:52;6.50;99.90
21772;DHT22;11047;47.904;8.110;2024-01-25T05:36:19;6.10;99.90
21772;DHT22;11047;47.904;8.110;2024-01-25T05:38:47;6.00;99.90
21772;DHT22;11047;47.904;8.110;2024-01-25T05:41:14;6.70;99.90
21772;DHT22;11047;47.904;8.110;2024-01-25T05:43:41;5.90;99.90
21772;DHT22;11047;47.904;8.110;2024-01-25T05:46:07;6.00;99.90
21772;DHT22;11047;47.904;8.110;2024-01-25T05:48:37;6.80;99.90
21772;DHT22;11047;47.904;8.110;2024-01-25T05:51:06;5.80;99.90
21772;DHT22;11047;47.904;8.110;2024-01-25T05:53:33;5.80;99.90
21772;DHT22;11047;47.904;8.110;2024-01-25T05:56:00;6.60;99.90
21772;DHT22;11047;47.904;8.110;2024-01-25T05:58:29;5.90;99.90
21772;DHT22;11047;47.904;8.110;2024-01-25T06:00:56;5.90;99.90
21772;DHT22;11047;47.904;8.110;2024-01-25T06:03:23;5.80;99.90
21772;DHT22;11047;47.904;8.110;2024-01-25T06:05:50;6.40;99.90
21772;DHT22;11047;47.904;8.110;2024-01-25T06:08:18;5.80;99.90
21772;DHT22;11047;47.904;8.110;2024-01-25T06:10:45;5.70;99.90
21772;DHT22;11047;47.904;8.110;2024-01-25T06:13:11;5.80;99.90
21772;DHT22;11047;47.904;8.110;2024-01-25T06:15:38;5.60;99.90
21772;DHT22;11047;47.904;8.110;2024-01-25T06:18:05;5.70;99.90
21772;DHT22;11047;47.904;8.110;2024-01-25T06:20:32;4.90;99.90
21772;DHT22;11047;47.904;8.110;2024-01-25T06:22:59;5.50;99.90
21772;DHT22;11047;47.904;8.110;2024-01-25T06:25:27;5.60;99.90
21772;DHT22;11047;47.904;8.110;2024-01-25T06:27:56;5.50;99.90
21772;DHT22;11047;47.904;8.110;2024-01-25T06:30:23;5.50;99.90
21772;DHT22;11047;47.904;8.110;2024-01-25T06:32:50;5.50;99.90
21772;DHT22;11047;47.904;8.110;2024-01-25T06:35:17;5.50;99.90
21772;DHT22;11047;47.904;8.110;2024-01-25T06:37:44;6.00;99.90
21772;DHT22;11047;47.904;8.110;2024-01-25T06:40:12;5.90;99.90
21772;DHT22;11047;47.904;8.110;2024-01-25T06:42:41;5.40;99.90
21772;DHT22;11047;47.904;8.110;2024-01-25T06:45:10;5.70;99.90
21772;DHT22;11047;47.904;8.110;2024-01-25T06:47:37;5.50;99.90
21772;DHT22;11047;47.904;8.110;2024-01-25T06:50:04;6.20;99.90
21772;DHT22;11047;47.904;8.110;2024-01-25T06:52:31;5.40;99.90
21772;DHT22;11047;47.904;8.110;2024-01-25T06:54:57;5.40;99.90
21772;DHT22;11047;47.904;8.110;2024-01-25T06:57:24;5.40;99.90
21772;DHT22;11047;47.904;8.110;2024-01-25T06:59:53;6.40;99.90
21772;DHT22;11047;47.904;8.110;2024-01-25T07:02:20;5.40;99.90
21772;DHT22;11047;47.904;8.110;2024-01-25T07:04:46;5.90;99.90
21772;DHT22;11047;47.904;8.110;2024-01-25T07:07:13;6.10;99.90
21772;DHT22;11047;47.904;8.110;2024-01-25T07:09:40;5.40;99.90
21772;DHT22;11047;47.904;8.110;2024-01-25T07:12:09;5.40;99.90
21772;DHT22;11047;47.904;8.110;2024-01-25T07:14:36;5.40;99.90
21772;DHT22;11047;47.904;8.110;2024-01-25T07:17:04;5.40;99.90
21772;DHT22;11047;47.904;8.110;2024-01-25T07:19:31;5.40;99.90
21772;DHT22;11047;47.904;8.110;2024-01-25T07:21:57;5.40;99.90
21772;DHT22;11047;47.904;8.110;2024-01-25T07:24:26;5.60;99.90
21772;DHT22;11047;47.904;8.110;2024-01-25T07:26:53;5.30;99.90
21772;DHT22;11047;47.904;8.110;2024-01-25T07:29:20;6.20;99.90
21772;DHT22;11047;47.904;8.110;2024-01-25T07:31:46;5.40;99.90
21772;DHT22;11047;47.904;8.110;2024-01-25T07:34:15;5.90;99.90
21772;DHT22;11047;47.904;8.110;2024-01-25T07:36:41;5.70;99.90
21772;DHT22;11047;47.904;8.110;2024-01-25T07:39:08;5.40;99.90
21772;DHT22;11047;47.904;8.110;2024-01-25T07:41:37;5.40;99.90
21772;DHT22;11047;47.904;8.110;2024-01-25T07:44:03;5.80;99.90
21772;DHT22;11047;47.904;8.110;2024-01-25T07:46:31;5.40;99.90
21772;DHT22;11047;47.904;8.110;2024-01-25T07:48:58;5.90;99.90
21772;DHT22;11047;47.904;8.110;2024-01-25T07:51:25;5.60;99.90
21772;DHT22;11047;47.904;8.110;2024-01-25T07:53:54;5.40;99.90
21772;DHT22;11047;47.904;8.110;2024-01-25T07:56:22;5.40;99.90
21772;DHT22;11047;47.904;8.110;2024-01-25T07:58:49;5.40;99.90
21772;DHT22;11047;47.904;8.110;2024-01-25T08:01:17;5.80;99.90
21772;DHT22;11047;47.904;8.110;2024-01-25T08:03:44;5.90;99.90
21772;DHT22;11047;47.904;8.110;2024-01-25T08:06:11;6.30;99.90
21772;DHT22;11047;47.904;8.110;2024-01-25T08:08:39;5.50;99.90
21772;DHT22;11047;47.904;8.110;2024-01-25T08:11:06;5.90;99.90
21772;DHT22;11047;47.904;8.110;2024-01-25T08:13:33;5.50;99.90
21772;DHT22;11047;47.904;8.110;2024-01-25T08:16:00;5.60;99.90
21772;DHT22;11047;47.904;8.110;2024-01-25T08:18:27;5.50;99.90
21772;DHT22;11047;47.904;8.110;2024-01-25T08:20:55;5.60;99.90
21772;DHT22;11047;47.904;8.110;2024-01-25T08:23:22;5.70;99.90
21772;DHT22;11047;47.904;8.110;2024-01-25T08:25:52;5.60;99.90
21772;DHT22;11047;47.904;8.110;2024-01-25T08:28:21;5.10;99.90
21772;DHT22;11047;47.904;8.110;2024-01-25T08:30:48;5.60;99.90
21772;DHT22;11047;47.904;8.110;2024-01-25T08:33:14;6.20;99.90
21772;DHT22;11047;47.904;8.110;2024-01-25T08:35:41;6.10;99.90
21772;DHT22;11047;47.904;8.110;2024-01-25T08:38:08;5.30;99.90
21772;DHT22;11047;47.904;8.110;2024-01-25T08:40:35;5.60;99.90
21772;DHT22;11047;47.904;8.110;2024-01-25T08:43:03;5.80;99.90
21772;DHT22;11047;47.904;8.110;2024-01-25T08:45:32;5.70;99.90
21772;DHT22;11047;47.904;8.110;2024-01-25T08:47:59;5.70;99.90
21772;DHT22;11047;47.904;8.110;2024-01-25T08:50:26;5.70;99.90
21772;DHT22;11047;47.904;8.110;2024-01-25T08:52:52;6.50;99.90
21772;DHT22;11047;47.904;8.110;2024-01-25T08:55:19;5.80;99.90
21772;DHT22;11047;47.904;8.110;2024-01-25T08:57:47;5.80;99.90
21772;DHT22;11047;47.904;8.110;2024-01-25T09:00:16;5.80;99.90
21772;DHT22;11047;47.904;8.110;2024-01-25T09:02:43;5.80;99.90
21772;DHT22;11047;47.904;8.110;2024-01-25T09:05:10;5.80;99.90
21772;DHT22;11047;47.904;8.110;2024-01-25T09:07:37;5.90;99.90
21772;DHT22;11047;47.904;8.110;2024-01-25T09:10:07;6.10;99.90
21772;DHT22;11047;47.904;8.110;2024-01-25T09:12:33;5.90;99.90
21772;DHT22;11047;47.904;8.110;2024-01-25T09:15:00;6.00;99.90
21772;DHT22;11047;47.904;8.110;2024-01-25T09:17:29;6.10;99.90
21772;DHT22;11047;47.904;8.110;2024-01-25T09:19:56;6.10;99.90
21772;DHT22;11047;47.904;8.110;2024-01-25T09:22:24;6.10;99.90
21772;DHT22;11047;47.904;8.110;2024-01-25T09:24:52;6.20;99.90
21772;DHT22;11047;47.904;8.110;2024-01-25T09:27:19;6.20;99.90
21772;DHT22;11047;47.904;8.110;2024-01-25T09:29:46;7.00;99.90
21772;DHT22;11047;47.904;8.110;2024-01-25T09:32:13;6.30;99.90
21772;DHT22;11047;47.904;8.110;2024-01-25T09:34:43;6.30;99.90
21772;DHT22;11047;47.904;8.110;2024-01-25T09:37:10;6.30;99.90
21772;DHT22;11047;47.904;8.110;2024-01-25T09:39:37;6.30;99.90
21772;DHT22;11047;47.904;8.110;2024-01-25T09:42:04;6.80;99.90
21772;DHT22;11047;47.904;8.110;2024-01-25T09:44:32;6.90;99.90
21772;DHT22;11047;47.904;8.110;2024-01-25T09:46:59;6.40;99.90
21772;DHT22;11047;47.904;8.110;2024-01-25T09:49:27;6.40;99.90
21772;DHT22;11047;47.904;8.110;2024-01-25T09:51:55;7.10;99.90
21772;DHT22;11047;47.904;8.110;2024-01-25T09:54:24;6.80;99.90
21772;DHT22;11047;47.904;8.110;2024-01-25T09:56:52;6.40;99.90
21772;DHT22;11047;47.904;8.110;2024-01-25T09:59:20;6.40;99.90
21772;DHT22;11047;47.904;8.110;2024-01-25T10:01:47;6.80;99.90
21772;DHT22;11047;47.904;8.110;2024-01-25T10:04:15;6.50;99.90
21772;DHT22;11047;47.904;8.110;2024-01-25T10:06:44;6.50;99.90
21772;DHT22;11047;47.904;8.110;2024-01-25T10:09:15;6.60;99.90
21772;DHT22;11047;47.904;8.110;2024-01-25T10:11:42;6.60;99.90
21772;DHT22;11047;47.904;8.110;2024-01-25T10:14:09;6.60;99.90
21772;DHT22;11047;47.904;8.110;2024-01-25T10:16:36;6.70;99.90
21772;DHT22;11047;47.904;8.110;2024-01-25T10:19:04;6.70;99.90
21772;DHT22;11047;47.904;8.110;2024-01-25T10:21:34;6.80;99.90
21772;DHT22;11047;47.904;8.110;2024-01-25T10:24:01;6.90;99.90
21772;DHT22;11047;47.904;8.110;2024-01-25T10:26:31;6.30;99.90
21772;DHT22;11047;47.904;8.110;2024-01-25T10:28:57;6.90;99.90
21772;DHT22;11047;47.904;8.110;2024-01-25T10:31:24;7.00;99.90
21772;DHT22;11047;47.904;8.110;2024-01-25T10:33:51;7.00;99.90
21772;DHT22;11047;47.904;8.110;2024-01-25T10:36:19;7.00;99.90
21772;DHT22;11047;47.904;8.110;2024-01-25T10:38:48;7.00;99.90
21772;DHT22;11047;47.904;8.110;2024-01-25T10:41:15;7.10;99.90
21772;DHT22;11047;47.904;8.110;2024-01-25T10:43:44;7.10;99.90
21772;DHT22;11047;47.904;8.110;2024-01-25T10:46:11;7.20;99.90
21772;DHT22;11047;47.904;8.110;2024-01-25T10:48:38;6.60;99.90
21772;DHT22;11047;47.904;8.110;2024-01-25T10:51:05;7.20;99.90
21772;DHT22;11047;47.904;8.110;2024-01-25T10:53:34;6.70;99.90
21772;DHT22;11047;47.904;8.110;2024-01-25T10:56:02;7.20;99.90
21772;DHT22;11047;47.904;8.110;2024-01-25T10:58:30;7.30;99.90
21772;DHT22;11047;47.904;8.110;2024-01-25T11:01:00;7.40;99.90
21772;DHT22;11047;47.904;8.110;2024-01-25T11:03:29;7.30;99.90
21772;DHT22;11047;47.904;8.110;2024-01-25T11:06:05;7.90;99.90
21772;DHT22;11047;47.904;8.110;2024-01-25T11:08:32;7.40;99.90
21772;DHT22;11047;47.904;8.110;2024-01-25T11:10:59;7.40;99.90
21772;DHT22;11047;47.904;8.110;2024-01-25T11:13:26;7.40;99.90
21772;DHT22;11047;47.904;8.110;2024-01-25T11:15:55;7.40;99.90
21772;DHT22;11047;47.904;8.110;2024-01-25T11:18:25;7.60;99.90
21772;DHT22;11047;47.904;8.110;2024-01-25T11:20:54;7.40;99.90
21772;DHT22;11047;47.904;8.110;2024-01-25T11:23:31;7.40;99.90
21772;DHT22;11047;47.904;8.110;2024-01-25T11:25:58;7.70;99.90
21772;DHT22;11047;47.904;8.110;2024-01-25T11:28:25;7.40;99.90
21772;DHT22;11047;47.904;8.110;2024-01-25T11:30:51;7.40;99.90
21772;DHT22;11047;47.904;8.110;2024-01-25T11:33:19;7.40;99.90
21772;DHT22;11047;47.904;8.110;2024-01-25T11:35:55;7.50;99.90
21772;DHT22;11047;47.904;8.110;2024-01-25T11:38:24;7.50;99.90
21772;DHT22;11047;47.904;8.110;2024-01-25T11:40:51;7.60;99.90
21772;DHT22;11047;47.904;8.110;2024-01-25T11:43:21;7.60;99.90
21772;DHT22;11047;47.904;8.110;2024-01-25T11:45:47;7.70;99.90
21772;DHT22;11047;47.904;8.110;2024-01-25T11:48:14;7.70;99.90
21772;DHT22;11047;47.904;8.110;2024-01-25T11:50:41;7.70;99.90
21772;DHT22;11047;47.904;8.110;2024-01-25T11:53:09;7.30;99.90
21772;DHT22;11047;47.904;8.110;2024-01-25T11:55:36;7.70;99.90
21772;DHT22;11047;47.904;8.110;2024-01-25T11:58:03;7.70;99.90
21772;DHT22;11047;47.904;8.110;2024-01-25T12:00:30;7.70;99.90
21772;DHT22;11047;47.904;8.110;2024-01-25T12:02:57;7.60;99.90
21772;DHT22;11047;47.904;8.110;2024-01-25T12:05:24;7.60;99.90
21772;DHT22;11047;47.904;8.110;2024-01-25T12:07:53;7.70;99.90
21772;DHT22;11047;47.904;8.110;2024-01-25T12:10:21;7.70;99.90
21772;DHT22;11047;47.904;8.110;2024-01-25T12:12:49;7.70;99.90
21772;DHT22;11047;47.904;8.110;2024-01-25T12:15:16;7.70;99.90
21772;DHT22;11047;47.904;8.110;2024-01-25T12:17:43;7.80;99.90
21772;DHT22;11047;47.904;8.110;2024-01-25T12:20:11;7.80;99.90
21772;DHT22;11047;47.904;8.110;2024-01-25T12:22:37;7.80;99.90
21772;DHT22;11047;47.904;8.110;2024-01-25T12:25:06;7.90;99.90
21772;DHT22;11047;47.904;8.110;2024-01-25T12:27:41;7.80;99.90
21772;DHT22;11047;47.904;8.110;2024-01-25T12:30:08;7.80;99.90
21772;DHT22;11047;47.904;8.110;2024-01-25T12:32:35;7.90;99.90
21772;DHT22;11047;47.904;8.110;2024-01-25T12:35:01;8.00;99.90
21772;DHT22;11047;47.904;8.110;2024-01-25T12:37:32;7.90;99.90
21772;DHT22;11047;47.904;8.110;2024-01-25T12:39:59;7.90;99.90
21772;DHT22;11047;47.904;8.110;2024-01-25T12:42:26;7.90;99.90
21772;DHT22;11047;47.904;8.110;2024-01-25T12:44:54;7.90;99.90
21772;DHT22;11047;47.904;8.110;2024-01-25T12:47:21;7.80;99.90
21772;DHT22;11047;47.904;8.110;2024-01-25T12:49:48;7.80;99.90
21772;DHT22;11047;47.904;8.110;2024-01-25T12:52:15;7.90;99.90
21772;DHT22;11047;47.904;8.110;2024-01-25T12:54:48;7.80;99.90
21772;DHT22;11047;47.904;8.110;2024-01-25T12:57:15;7.80;99.90
21772;DHT22;11047;47.904;8.110;2024-01-25T12:59:41;7.70;99.90
21772;DHT22;11047;47.904;8.110;2024-01-25T13:02:09;7.80;99.90
21772;DHT22;11047;47.904;8.110;2024-01-25T13:04:38;7.90;99.90
21772;DHT22;11047;47.904;8.110;2024-01-25T13:07:05;7.90;99.90
21772;DHT22;11047;47.904;8.110;2024-01-25T13:09:33;7.90;99.90
21772;DHT22;11047;47.904;8.110;2024-01-25T13:12:02;8.00;99.90
21772;DHT22;11047;47.904;8.110;2024-01-25T13:14:29;8.00;99.90
21772;DHT22;11047;47.904;8.110;2024-01-25T13:16:55;8.00;99.90
21772;DHT22;11047;47.904;8.110;2024-01-25T13:19:24;8.00;99.90
21772;DHT22;11047;47.904;8.110;2024-01-25T13:21:50;8.00;99.90
21772;DHT22;11047;47.904;8.110;2024-01-25T13:24:20;8.00;99.90
21772;DHT22;11047;47.904;8.110;2024-01-25T13:26:47;8.00;99.90
21772;DHT22;11047;47.904;8.110;2024-01-25T13:29:14;8.00;99.90
21772;DHT22;11047;47.904;8.110;2024-01-25T13:31:40;8.00;99.90
21772;DHT22;11047;47.904;8.110;2024-01-25T13:34:07;8.00;99.90
21772;DHT22;11047;47.904;8.110;2024-01-25T13:36:35;7.90;99.90
21772;DHT22;11047;47.904;8.110;2024-01-25T13:39:02;7.90;99.90
21772;DHT22;11047;47.904;8.110;2024-01-25T13:41:30;7.90;99.90
21772;DHT22;11047;47.904;8.110;2024-01-25T13:43:59;8.00;99.90
21772;DHT22;11047;47.904;8.110;2024-01-25T13:46:26;8.20;99.90
21772;DHT22;11047;47.904;8.110;2024-01-25T13:48:52;8.10;99.90
21772;DHT22;11047;47.904;8.110;2024-01-25T13:51:20;8.10;99.90
21772;DHT22;11047;47.904;8.110;2024-01-25T13:53:48;8.10;99.90
21772;DHT22;11047;47.904;8.110;2024-01-25T13:56:16;8.10;99.90
21772;DHT22;11047;47.904;8.110;2024-01-25T13:58:42;8.20;99.90
21772;DHT22;11047;47.904;8.110;2024-01-25T14:01:09;8.20;99.90
21772;DHT22;11047;47.904;8.110;2024-01-25T14:03:36;8.20;99.90
21772;DHT22;11047;47.904;8.110;2024-01-25T14:06:03;8.30;99.90
21772;DHT22;11047;47.904;8.110;2024-01-25T14:08:33;8.30;99.90
21772;DHT22;11047;47.904;8.110;2024-01-25T14:11:01;8.20;99.90
21772;DHT22;11047;47.904;8.110;2024-01-25T14:13:28;8.30;99.90
21772;DHT22;11047;47.904;8.110;2024-01-25T14:16:09;8.40;99.90
21772;DHT22;11047;47.904;8.110;2024-01-25T14:18:55;8.40;99.90
21772;DHT22;11047;47.904;8.110;2024-01-25T14:28:27;8.40;99.90
21772;DHT22;11047;47.904;8.110;2024-01-25T14:31:01;8.40;99.90
21772;DHT22;11047;47.904;8.110;2024-01-25T14:33:41;8.40;99.90
21772;DHT22;11047;47.904;8.110;2024-01-25T14:40:02;8.30;99.90
21772;DHT22;11047;47.904;8.110;2024-01-25T14:45:58;8.40;99.90
21772;DHT22;11047;47.904;8.110;2024-01-25T14:52:19;8.40;99.90
21772;DHT22;11047;47.904;8.110;2024-01-25T14:58:16;8.20;99.90
21772;DHT22;11047;47.904;8.110;2024-01-25T15:00:52;8.20;99.90
21772;DHT22;11047;47.904;8.110;2024-01-25T15:03:20;8.10;99.90
21772;DHT22;11047;47.904;8.110;2024-01-25T15:05:48;8.10;99.90
21772;DHT22;11047;47.904;8.110;2024-01-25T15:08:17;8.10;99.90
21772;DHT22;11047;47.904;8.110;2024-01-25T15:10:50;8.20;99.90
21772;DHT22;11047;47.904;8.110;2024-01-25T15:13:17;7.90;99.90
21772;DHT22;11047;47.904;8.110;2024-01-25T15:15:45;8.10;99.90
21772;DHT22;11047;47.904;8.110;2024-01-25T15:18:12;8.10;99.90
21772;DHT22;11047;47.904;8.110;2024-01-25T15:20:43;8.00;99.90
21772;DHT22;11047;47.904;8.110;2024-01-25T15:23:11;8.00;99.90
21772;DHT22;11047;47.904;8.110;2024-01-25T15:25:38;8.10;99.90
21772;DHT22;11047;47.904;8.110;2024-01-25T15:28:05;8.10;99.90
21772;DHT22;11047;47.904;8.110;2024-01-25T15:30:34;8.10;99.90
21772;DHT22;11047;47.904;8.110;2024-01-25T15:33:04;8.00;99.90
21772;DHT22;11047;47.904;8.110;2024-01-25T15:35:31;8.50;99.90
21772;DHT22;11047;47.904;8.110;2024-01-25T15:38:01;8.00;99.90
21772;DHT22;11047;47.904;8.110;2024-01-25T15:40:30;7.70;99.90
21772;DHT22;11047;47.904;8.110;2024-01-25T15:42:57;7.90;99.90
21772;DHT22;11047;47.904;8.110;2024-01-25T15:45:24;7.90;99.90
21772;DHT22;11047;47.904;8.110;2024-01-25T15:47:53;7.60;99.90
21772;DHT22;11047;47.904;8.110;2024-01-25T15:50:50;7.80;99.90
21772;DHT22;11047;47.904;8.110;2024-01-25T15:53:18;8.20;99.90
21772;DHT22;11047;47.904;8.110;2024-01-25T15:55:45;7.80;99.90
21772;DHT22;11047;47.904;8.110;2024-01-25T15:58:12;7.80;99.90
21772;DHT22;11047;47.904;8.110;2024-01-25T16:00:41;7.80;99.90
21772;DHT22;11047;47.904;8.110;2024-01-25T16:03:08;8.20;99.90
21772;DHT22;11047;47.904;8.110;2024-01-25T16:05:35;7.70;99.90
21772;DHT22;11047;47.904;8.110;2024-01-25T16:11:03;7.70;99.90
21772;DHT22;11047;47.904;8.110;2024-01-25T16:13:34;7.80;99.90
21772;DHT22;11047;47.904;8.110;2024-01-25T16:16:27;7.70;99.90